Time;durP1;ratioP1;P1;durP2;ratioP2;P2;SDS_P1;SDS_P2;PMS_P1;PMS_P2;Temp;Humidity;BMP_temperature;BMP_pressure;BME280_temperature;BME280_humidity;BME280_pressure;Samples;Min_cycle;Max_cycle;Signal;HPM_P1;HPM_P2
2022/09/20 00:00:41;;;;;;;728.03;436.98;;;;;;;;;;5096138;28;20510;-72
2022/09/20 00:03:08;;;;;;;753.50;459.58;;;;;;;;;;5095683;28;20419;-72
2022/09/20 00:05:34;;;;;;;752.63;439.30;;;;;;;;;;5096066;28;20061;-73
2022/09/20 00:08:01;;;;;;;1.00;0.32;;;;;;;;;;5096037;28;20024;-72
2022/09/20 00:10:29;;;;;;;0.32;0.22;;;;;;;;;;5095479;28;20047;-72
2022/09/20 00:12:56;;;;;;;0.50;0.40;;;;;;;;;;5095920;28;20027;-72
2022/09/20 00:15:22;;;;;;;0.60;0.20;;;;;;;;;;5096025;28;20464;-73
2022/09/20 00:17:48;;;;;;;0.30;0.30;;;;;;;;;;5095208;28;20035;-72
2022/09/20 00:20:14;;;;;;;0.20;0.20;;;;;;;;;;5095591;28;20024;-72
2022/09/20 00:22:40;;;;;;;1.10;0.35;;;;;;;;;;5095355;28;20135;-72
2022/09/20 00:25:07;;;;;;;1.10;0.55;;;;;;;;;;5095346;28;20058;-72
2022/09/20 00:27:33;;;;;;;1.30;0.30;;;;;;;;;;5095520;28;20160;-72
2022/09/20 00:29:59;;;;;;;5.80;1.05;;;;;;;;;;5095398;28;20024;-72
2022/09/20 00:32:25;;;;;;;0.80;0.32;;;;;;;;;;5094933;28;20020;-72
2022/09/20 00:35:06;;;;;;;0.30;0.30;;;;;;;;;;5095526;28;20024;-72
2022/09/20 00:37:33;;;;;;;0.25;0.20;;;;;;;;;;5095313;28;20142;-72
2022/09/20 00:40:00;;;;;;;0.50;0.40;;;;;;;;;;5095075;28;20024;-72
2022/09/20 00:42:27;;;;;;;0.88;0.40;;;;;;;;;;5095116;28;20035;-72
2022/09/20 00:45:00;;;;;;;0.73;0.40;;;;;;;;;;5094066;28;20024;-72
2022/09/20 00:47:26;;;;;;;0.47;0.30;;;;;;;;;;5095115;28;20097;-72
2022/09/20 00:49:55;;;;;;;0.30;0.30;;;;;;;;;;5095329;28;20051;-72
2022/09/20 00:52:22;;;;;;;0.30;0.30;;;;;;;;;;5094551;28;20099;-72
2022/09/20 00:54:48;;;;;;;1.27;0.50;;;;;;;;;;5094963;28;20024;-72
2022/09/20 00:57:14;;;;;;;3.50;0.30;;;;;;;;;;5094917;28;20513;-72
2022/09/20 00:59:43;;;;;;;1.60;0.40;;;;;;;;;;5094717;28;20418;-72
2022/09/20 01:02:11;;;;;;;0.30;0.30;;;;;;;;;;5094742;28;20047;-72
2022/09/20 01:04:39;;;;;;;0.30;0.30;;;;;;;;;;5094741;28;20024;-72
2022/09/20 01:07:07;;;;;;;0.45;0.38;;;;;;;;;;5094296;28;20028;-72
2022/09/20 01:09:33;;;;;;;0.60;0.30;;;;;;;;;;5094925;28;20031;-72
2022/09/20 01:12:02;;;;;;;8.98;1.55;;;;;;;;;;5094598;28;20035;-72
2022/09/20 01:14:28;;;;;;;0.50;0.30;;;;;;;;;;5094142;28;20515;-72
2022/09/20 01:16:55;;;;;;;0.25;0.20;;;;;;;;;;5094642;28;20058;-72
2022/09/20 01:19:42;;;;;;;0.43;0.30;;;;;;;;;;5094479;28;20027;-72
2022/09/20 01:22:20;;;;;;;0.52;0.20;;;;;;;;;;5093648;28;20048;-72
2022/09/20 01:24:50;;;;;;;0.30;0.20;;;;;;;;;;5095023;28;20020;-72
2022/09/20 01:27:36;;;;;;;2.58;0.57;;;;;;;;;;5093956;28;20024;-72
2022/09/20 01:30:07;;;;;;;0.77;0.30;;;;;;;;;;5094194;28;20020;-72
2022/09/20 01:33:02;;;;;;;0.75;0.38;;;;;;;;;;5094267;28;20020;-72
2022/09/20 01:35:29;;;;;;;0.50;0.20;;;;;;;;;;5039336;28;20585;-72
2022/09/20 01:37:58;;;;;;;0.55;0.20;;;;;;;;;;5094192;28;20058;-72
2022/09/20 01:40:39;;;;;;;0.30;0.20;;;;;;;;;;5094200;28;20016;-72
2022/09/20 01:43:11;;;;;;;1.20;0.30;;;;;;;;;;5093782;28;20427;-71
2022/09/20 01:45:42;;;;;;;0.20;0.20;;;;;;;;;;5092757;28;20020;-72
2022/09/20 01:48:27;;;;;;;0.45;0.35;;;;;;;;;;5094063;28;20034;-71
2022/09/20 01:51:11;;;;;;;0.57;0.30;;;;;;;;;;5093960;28;20025;-72
2022/09/20 01:53:46;;;;;;;0.52;0.40;;;;;;;;;;5093893;28;20077;-72
2022/09/20 01:56:15;;;;;;;0.52;0.30;;;;;;;;;;5091963;28;20499;-72
2022/09/20 01:58:48;;;;;;;0.65;0.30;;;;;;;;;;5093785;28;20039;-72
2022/09/20 02:01:23;;;;;;;0.87;0.40;;;;;;;;;;5093745;28;20060;-72
2022/09/20 02:03:52;;;;;;;0.30;0.30;;;;;;;;;;5093340;28;20016;-72
2022/09/20 02:06:22;;;;;;;1.35;0.57;;;;;;;;;;5092460;28;20035;-72
2022/09/20 02:08:48;;;;;;;2.78;0.60;;;;;;;;;;5093777;28;20027;-72
2022/09/20 02:11:16;;;;;;;0.22;0.20;;;;;;;;;;5093375;28;20476;-72
2022/09/20 02:13:49;;;;;;;0.40;0.30;;;;;;;;;;5093656;28;20020;-72
2022/09/20 02:16:21;;;;;;;1.65;0.40;;;;;;;;;;5093895;28;20028;-72
2022/09/20 02:18:56;;;;;;;0.57;0.40;;;;;;;;;;5093872;28;20027;-72
2022/09/20 02:21:40;;;;;;;1.02;0.50;;;;;;;;;;5093320;28;20054;-72
2022/09/20 02:24:15;;;;;;;1.17;0.40;;;;;;;;;;5093234;28;20022;-72
2022/09/20 02:26:48;;;;;;;0.30;0.30;;;;;;;;;;5093806;28;20417;-72
2022/09/20 02:29:14;;;;;;;1.13;0.40;;;;;;;;;;5093707;28;20040;-72
2022/09/20 02:31:53;;;;;;;0.43;0.30;;;;;;;;;;5093332;28;20016;-72
2022/09/20 02:34:32;;;;;;;0.55;0.30;;;;;;;;;;5093651;28;20358;-72
2022/09/20 02:36:59;;;;;;;1.20;0.30;;;;;;;;;;5093753;28;20038;-72
2022/09/20 02:39:35;;;;;;;0.63;0.43;;;;;;;;;;5093025;28;20380;-72
2022/09/20 02:42:01;;;;;;;1.65;0.50;;;;;;;;;;5093328;28;20469;-72
2022/09/20 02:44:46;;;;;;;0.40;0.40;;;;;;;;;;5093138;28;20023;-72
2022/09/20 02:47:19;;;;;;;0.77;0.57;;;;;;;;;;5093315;28;20024;-72
2022/09/20 02:49:45;;;;;;;0.20;0.20;;;;;;;;;;5093284;28;20038;-72
2022/09/20 02:52:30;;;;;;;0.77;0.60;;;;;;;;;;5092927;28;20027;-72
2022/09/20 02:55:08;;;;;;;1.45;0.60;;;;;;;;;;5093592;28;20028;-73
2022/09/20 02:57:58;;;;;;;1.50;0.50;;;;;;;;;;5093271;28;20051;-72
2022/09/20 03:00:27;;;;;;;0.43;0.40;;;;;;;;;;5091549;28;20035;-73
2022/09/20 03:03:06;;;;;;;1.08;0.40;;;;;;;;;;5093219;28;20027;-72
2022/09/20 03:05:52;;;;;;;1.05;0.50;;;;;;;;;;5093214;28;20024;-72
2022/09/20 03:08:19;;;;;;;1.85;0.40;;;;;;;;;;5094766;28;20024;-72
2022/09/20 03:10:46;;;;;;;1.52;0.40;;;;;;;;;;5096971;28;20052;-72
2022/09/20 03:13:18;;;;;;;1.85;1.00;;;;;;;;;;5096470;28;20020;-72
2022/09/20 03:15:59;;;;;;;9.98;2.25;;;;;;;;;;5095652;28;20020;-72
2022/09/20 03:18:35;;;;;;;5.10;1.55;;;;;;;;;;5096837;28;20417;-72
2022/09/20 03:21:21;;;;;;;13.73;3.60;;;;;;;;;;5096117;28;20131;-72
2022/09/20 03:24:06;;;;;;;3.08;0.90;;;;;;;;;;5096832;28;20065;-72
2022/09/20 03:26:35;;;;;;;0.65;0.40;;;;;;;;;;5095390;28;20111;-72
2022/09/20 03:29:01;;;;;;;2.33;0.70;;;;;;;;;;5096221;28;20020;-72
2022/09/20 03:31:46;;;;;;;0.98;0.30;;;;;;;;;;5096837;28;20020;-72
2022/09/20 03:34:33;;;;;;;1.77;0.80;;;;;;;;;;5094877;28;20033;-73
2022/09/20 03:36:59;;;;;;;1.08;0.50;;;;;;;;;;5096789;28;20020;-73
2022/09/20 03:39:28;;;;;;;0.45;0.40;;;;;;;;;;5095213;28;20028;-73
2022/09/20 03:41:57;;;;;;;0.43;0.32;;;;;;;;;;5096006;28;20036;-72
2022/09/20 03:44:23;;;;;;;3.10;0.60;;;;;;;;;;5096392;28;20018;-73
2022/09/20 03:46:51;;;;;;;0.95;0.50;;;;;;;;;;5095001;28;20024;-72
2022/09/20 03:49:53;;;;;;;0.70;0.57;;;;;;;;;;5096154;28;20395;-72
2022/09/20 03:52:38;;;;;;;1.05;0.50;;;;;;;;;;5033906;28;20069;-72
2022/09/20 03:55:22;;;;;;;0.85;0.50;;;;;;;;;;5091361;28;20037;-72
2022/09/20 03:57:57;;;;;;;12.75;0.80;;;;;;;;;;5096113;28;20028;-72
2022/09/20 04:00:24;;;;;;;0.52;0.40;;;;;;;;;;5096015;28;20384;-72
2022/09/20 04:03:02;;;;;;;0.73;0.52;;;;;;;;;;5095669;28;20032;-72
2022/09/20 04:05:44;;;;;;;0.85;0.50;;;;;;;;;;5096277;28;20043;-72
2022/09/20 04:08:28;;;;;;;1.45;0.50;;;;;;;;;;5096286;28;20024;-72
2022/09/20 04:10:58;;;;;;;1.23;0.52;;;;;;;;;;5095502;28;20028;-72
2022/09/20 04:13:43;;;;;;;1.13;0.50;;;;;;;;;;5095993;28;20103;-72
2022/09/20 04:16:26;;;;;;;1.23;0.50;;;;;;;;;;5095482;28;20024;-72
2022/09/20 04:18:57;;;;;;;0.82;0.30;;;;;;;;;;5095608;28;20388;-72
2022/09/20 04:21:43;;;;;;;1.15;0.50;;;;;;;;;;5095318;28;20553;-72
2022/09/20 04:24:09;;;;;;;1.77;0.55;;;;;;;;;;5095299;28;20039;-72
2022/09/20 04:26:38;;;;;;;0.70;0.50;;;;;;;;;;5095490;28;20020;-72
2022/09/20 04:29:08;;;;;;;1.45;0.55;;;;;;;;;;5095700;28;20035;-72
2022/09/20 04:31:49;;;;;;;0.55;0.43;;;;;;;;;;5095237;28;20027;-72
2022/09/20 04:34:18;;;;;;;1.08;0.50;;;;;;;;;;5095643;28;20028;-72
2022/09/20 04:36:56;;;;;;;1.58;0.68;;;;;;;;;;5095336;28;20032;-72
2022/09/20 04:39:31;;;;;;;0.93;0.60;;;;;;;;;;5094930;28;20043;-72
2022/09/20 04:42:07;;;;;;;0.73;0.50;;;;;;;;;;5095257;28;20036;-72
2022/09/20 04:45:03;;;;;;;1.45;0.60;;;;;;;;;;5094994;28;20020;-73
2022/09/20 04:47:33;;;;;;;2.65;0.50;;;;;;;;;;5095142;28;20028;-72
2022/09/20 04:50:06;;;;;;;2.47;0.60;;;;;;;;;;5095014;28;20024;-72
2022/09/20 04:52:52;;;;;;;3.38;0.65;;;;;;;;;;5094692;28;20050;-72
2022/09/20 04:55:24;;;;;;;0.82;0.50;;;;;;;;;;5095001;28;20099;-72
2022/09/20 04:57:59;;;;;;;0.93;0.73;;;;;;;;;;5094952;28;20544;-72
2022/09/20 05:00:31;;;;;;;1.15;0.60;;;;;;;;;;5094420;28;20036;-72
2022/09/20 05:03:09;;;;;;;1.20;0.73;;;;;;;;;;5094934;28;20541;-72
2022/09/20 05:05:54;;;;;;;1.48;0.52;;;;;;;;;;5094358;28;20020;-72
2022/09/20 05:08:32;;;;;;;1.08;0.68;;;;;;;;;;5095111;28;20027;-72
2022/09/20 05:11:17;;;;;;;0.75;0.55;;;;;;;;;;5094678;28;20048;-73
2022/09/20 05:14:02;;;;;;;0.63;0.45;;;;;;;;;;5093955;28;20066;-72
2022/09/20 05:16:47;;;;;;;2.17;0.55;;;;;;;;;;5093619;28;20069;-72
2022/09/20 05:19:13;;;;;;;2.28;0.60;;;;;;;;;;5091805;28;20322;-72
2022/09/20 05:21:58;;;;;;;1.17;0.50;;;;;;;;;;5091924;28;20101;-72
2022/09/20 05:24:33;;;;;;;1.33;0.68;;;;;;;;;;5092061;28;20115;-72
2022/09/20 05:27:18;;;;;;;2.35;0.63;;;;;;;;;;5089121;28;20020;-71
2022/09/20 05:29:50;;;;;;;1.17;0.80;;;;;;;;;;5089008;28;20114;-72
2022/09/20 05:32:19;;;;;;;1.30;0.90;;;;;;;;;;5079708;28;20074;-72
2022/09/20 05:34:45;;;;;;;2.05;0.90;;;;;;;;;;5077938;28;20024;-73
2022/09/20 05:37:15;;;;;;;1.75;0.70;;;;;;;;;;5087434;28;20023;-73
2022/09/20 05:39:59;;;;;;;1.02;0.60;;;;;;;;;;5090341;28;20494;-74
2022/09/20 05:42:45;;;;;;;3.05;0.80;;;;;;;;;;5087012;28;20055;-74
2022/09/20 05:45:30;;;;;;;1.35;0.63;;;;;;;;;;5071121;28;20079;-76
2022/09/20 05:48:00;;;;;;;1.42;0.60;;;;;;;;;;5081274;28;20032;-76
2022/09/20 05:50:29;;;;;;;1.33;0.60;;;;;;;;;;5080403;28;20067;-74
2022/09/20 05:53:08;;;;;;;0.63;0.63;;;;;;;;;;5073242;28;20373;-74
2022/09/20 05:55:34;;;;;;;0.60;0.50;;;;;;;;;;5080633;28;20089;-74
2022/09/20 05:58:06;;;;;;;1.17;0.88;;;;;;;;;;5091111;28;20200;-73
2022/09/20 06:00:42;;;;;;;5.95;0.70;;;;;;;;;;5091543;28;20047;-75
2022/09/20 06:03:36;;;;;;;0.93;0.55;;;;;;;;;;5092839;28;20027;-72
2022/09/20 06:06:21;;;;;;;3.95;0.63;;;;;;;;;;5101785;27;20394;-75
2022/09/20 06:08:56;;;;;;;1.70;0.77;;;;;;;;;;5110196;28;20032;-77
2022/09/20 06:11:41;;;;;;;1.65;0.47;;;;;;;;;;5110651;28;20020;-73
2022/09/20 06:14:15;;;;;;;2.65;0.60;;;;;;;;;;5108410;28;20035;-70
2022/09/20 06:16:47;;;;;;;1.23;0.60;;;;;;;;;;5107984;28;20104;-75
2022/09/20 06:19:14;;;;;;;0.75;0.60;;;;;;;;;;5106988;28;20028;-75
2022/09/20 06:21:53;;;;;;;1.20;0.75;;;;;;;;;;5089760;28;20047;-74
2022/09/20 06:24:37;;;;;;;1.13;0.88;;;;;;;;;;5089148;28;20043;-73
2022/09/20 06:27:03;;;;;;;;;;;;;;;;;;5089047;28;20024;-71
2022/09/20 06:29:30;;;;;;;1.45;0.70;;;;;;;;;;5087947;28;19958;-74
2022/09/20 06:31:56;;;;;;;1.45;0.73;;;;;;;;;;5120343;28;20030;-73
2022/09/20 06:34:22;;;;;;;0.95;0.68;;;;;;;;;;5118143;28;20202;-71
2022/09/20 06:42:29;;;;;;;4.93;0.80;;;;;;;;;;5087562;28;20035;-72
2022/09/20 06:44:56;;;;;;;1.98;0.80;;;;;;;;;;5107558;28;20480;-72
2022/09/20 06:47:22;;;;;;;0.55;0.40;;;;;;;;;;5108422;28;20055;-73
2022/09/20 06:49:49;;;;;;;0.30;0.30;;;;;;;;;;5108931;28;20077;-73
2022/09/20 06:52:34;;;;;;;0.90;0.70;;;;;;;;;;5109952;27;21128;-73
2022/09/20 06:55:06;;;;;;;1.58;0.50;;;;;;;;;;5101239;28;20379;-74
2022/09/20 06:57:39;;;;;;;1.30;0.60;;;;;;;;;;5108486;28;20039;-74
2022/09/20 07:00:09;;;;;;;0.88;0.40;;;;;;;;;;5106669;28;20066;-69
2022/09/20 07:04:26;;;;;;;1.13;0.50;;;;;;;;;;5108829;27;20442;-69
2022/09/20 07:08:19;;;;;;;1.25;0.50;;;;;;;;;;5106289;27;21010;-69
2022/09/20 07:10:45;;;;;;;0.93;0.50;;;;;;;;;;5099481;28;20048;-70
2022/09/20 07:13:41;;;;;;;3.05;0.77;;;;;;;;;;5098629;27;20619;-69
2022/09/20 07:16:08;;;;;;;0.85;0.40;;;;;;;;;;5098592;28;20139;-70
2022/09/20 07:18:34;;;;;;;1.35;0.47;;;;;;;;;;5104996;28;20050;-71
2022/09/20 07:21:00;;;;;;;1.42;0.50;;;;;;;;;;5082084;28;20020;-71
2022/09/20 07:23:28;;;;;;;2.35;0.50;;;;;;;;;;5105026;28;20503;-72
2022/09/20 07:29:54;;;;;;;1.85;0.40;;;;;;;;;;5108846;27;20454;-73
2022/09/20 07:32:20;;;;;;;0.47;0.40;;;;;;;;;;5105635;28;20095;-75
2022/09/20 07:34:46;;;;;;;1.33;0.47;;;;;;;;;;5108809;28;20027;-74
2022/09/20 07:38:02;;;;;;;0.85;0.70;;;;;;;;;;5067476;28;21179;-71
2022/09/20 07:40:28;;;;;;;0.40;0.40;;;;;;;;;;5065703;28;20116;-71
2022/09/20 07:44:26;;;;;;;0.52;0.45;;;;;;;;;;5108075;27;20415;-72
2022/09/20 07:46:57;;;;;;;0.30;0.30;;;;;;;;;;5107541;28;20039;-71
2022/09/20 07:50:20;;;;;;;0.25;0.25;;;;;;;;;;5108339;27;20631;-72
2022/09/20 07:54:21;;;;;;;1.05;0.40;;;;;;;;;;5107900;27;21297;-71
2022/09/20 07:58:09;;;;;;;0.50;0.50;;;;;;;;;;5066348;28;20670;-73
2022/09/20 08:02:33;;;;;;;0.93;0.38;;;;;;;;;;5108662;27;20842;-71
2022/09/20 08:05:00;;;;;;;0.35;0.35;;;;;;;;;;5109866;28;20541;-74
2022/09/20 08:07:26;;;;;;;1.15;0.40;;;;;;;;;;5104363;28;20024;-72
2022/09/20 08:09:53;;;;;;;1.33;0.40;;;;;;;;;;5104636;28;20019;-72
2022/09/20 08:13:59;;;;;;;1.52;0.60;;;;;;;;;;5107980;27;20392;-71
2022/09/20 08:16:26;;;;;;;0.90;0.40;;;;;;;;;;5108093;28;20027;-70
2022/09/20 08:18:57;;;;;;;1.55;0.60;;;;;;;;;;5102368;28;20028;-70
2022/09/20 08:23:13;;;;;;;3.08;0.60;;;;;;;;;;5109384;27;20602;-72
2022/09/20 08:26:34;;;;;;;1.23;0.40;;;;;;;;;;5110373;27;20621;-71
2022/09/20 08:29:00;;;;;;;4.47;2.63;;;;;;;;;;5110193;28;20536;-73
2022/09/20 08:31:33;;;;;;;2.97;1.67;;;;;;;;;;5110438;28;20032;-73
2022/09/20 08:34:59;;;;;;;1.20;0.50;;;;;;;;;;5069922;28;20411;-72
2022/09/20 08:37:25;;;;;;;0.80;0.40;;;;;;;;;;5069735;28;20029;-71
2022/09/20 08:39:51;;;;;;;2.88;1.25;;;;;;;;;;5069836;28;20031;-73
2022/09/20 08:45:00;;;;;;;2.35;0.47;;;;;;;;;;5108265;27;20119;-71
2022/09/20 08:47:30;;;;;;;1.30;0.60;;;;;;;;;;5086569;28;20550;-72
2022/09/20 08:49:57;;;;;;;1.35;0.50;;;;;;;;;;5086800;28;20104;-74
2022/09/20 08:52:32;;;;;;;0.40;0.40;;;;;;;;;;5088562;28;20087;-73
2022/09/20 08:57:20;;;;;;;1.77;0.50;;;;;;;;;;5075937;28;20391;-71
2022/09/20 09:01:58;;;;;;;3.22;0.90;;;;;;;;;;5143101;27;20943;-71
2022/09/20 09:04:30;;;;;;;1.98;0.45;;;;;;;;;;5144607;27;20387;-75
2022/09/20 09:07:54;;;;;;;0.30;0.30;;;;;;;;;;5059593;28;20760;-73
2022/09/20 09:10:20;;;;;;;0.73;0.32;;;;;;;;;;5070047;28;20055;-73
2022/09/20 09:12:46;;;;;;;0.90;0.20;;;;;;;;;;5069645;28;20078;-72
2022/09/20 09:15:21;;;;;;;0.30;0.28;;;;;;;;;;5070125;28;20052;-70
2022/09/20 09:18:18;;;;;;;0.55;0.38;;;;;;;;;;5067880;28;20383;-71
2022/09/20 09:22:38;;;;;;;0.20;0.20;;;;;;;;;;5107061;27;20617;-70
2022/09/20 09:29:34;;;;;;;0.30;0.30;;;;;;;;;;5054534;28;20036;-70
2022/09/20 09:33:54;;;;;;;0.75;0.30;;;;;;;;;;5107091;27;20112;-70
2022/09/20 09:36:23;;;;;;;0.40;0.30;;;;;;;;;;5106939;28;20032;-69
2022/09/20 09:40:21;;;;;;;0.88;0.43;;;;;;;;;;5083618;27;20970;-69
2022/09/20 09:43:01;;;;;;;0.43;0.30;;;;;;;;;;5065870;28;20571;-69
2022/09/20 09:45:27;;;;;;;1.50;0.32;;;;;;;;;;5066745;28;20211;-70
2022/09/20 09:47:54;;;;;;;1.13;0.30;;;;;;;;;;5066918;28;20020;-70
2022/09/20 09:53:25;;;;;;;0.57;0.30;;;;;;;;;;5101974;27;20516;-72
2022/09/20 09:55:51;;;;;;;0.43;0.20;;;;;;;;;;5105851;28;20019;-73
2022/09/20 10:01:28;;;;;;;0.88;0.30;;;;;;;;;;5105551;27;20625;-71
2022/09/20 10:04:06;;;;;;;1.85;0.43;;;;;;;;;;5090377;28;20035;-71
2022/09/20 10:06:37;;;;;;;1.35;0.32;;;;;;;;;;5086829;28;20100;-71
2022/09/20 10:09:16;;;;;;;0.70;0.30;;;;;;;;;;5085567;28;20107;-71
2022/09/20 10:13:32;;;;;;;0.85;0.32;;;;;;;;;;5107887;27;20113;-72
2022/09/20 10:16:16;;;;;;;0.20;0.20;;;;;;;;;;5108435;28;20108;-70
2022/09/20 10:18:51;;;;;;;2.20;0.80;;;;;;;;;;5108065;28;20020;-72
2022/09/20 10:21:18;;;;;;;2.50;0.50;;;;;;;;;;5108861;28;20480;-73
2022/09/20 10:23:52;;;;;;;3.25;0.40;;;;;;;;;;5107478;28;20051;-71
2022/09/20 10:26:33;;;;;;;0.50;0.40;;;;;;;;;;5107914;28;20515;-72
2022/09/20 10:29:05;;;;;;;1.13;0.22;;;;;;;;;;5107207;28;20112;-73
2022/09/20 10:31:39;;;;;;;1.27;0.30;;;;;;;;;;5107839;28;20471;-73
2022/09/20 10:34:53;;;;;;;0.93;0.20;;;;;;;;;;5067679;28;20387;-71
2022/09/20 10:37:20;;;;;;;0.93;0.30;;;;;;;;;;5068435;28;20114;-73
2022/09/20 10:43:15;;;;;;;0.43;0.30;;;;;;;;;;5068836;28;20592;-72
2022/09/20 10:45:47;;;;;;;0.50;0.38;;;;;;;;;;5069928;28;20036;-72
2022/09/20 10:49:23;;;;;;;3.63;1.23;;;;;;;;;;5109271;27;20581;-71
2022/09/20 10:53:40;;;;;;;0.80;0.30;;;;;;;;;;5109745;27;20385;-72
2022/09/20 10:56:15;;;;;;;1.25;0.35;;;;;;;;;;5109890;28;20028;-73
2022/09/20 10:58:47;;;;;;;0.80;0.50;;;;;;;;;;5110321;28;20019;-72
2022/09/20 11:01:32;;;;;;;0.40;0.30;;;;;;;;;;5110639;28;20375;-72
2022/09/20 11:04:19;;;;;;;0.30;0.28;;;;;;;;;;5108872;28;20560;-72
2022/09/20 11:06:49;;;;;;;0.95;0.60;;;;;;;;;;5110428;28;20020;-72
2022/09/20 11:10:54;;;;;;;0.68;0.50;;;;;;;;;;5108731;27;20388;-72
2022/09/20 11:19:46;;;;;;;1.30;0.43;;;;;;;;;;5108250;27;20119;-72
2022/09/20 11:22:16;;;;;;;2.10;0.60;;;;;;;;;;5110106;28;20032;-72
2022/09/20 11:26:10;;;;;;;0.60;0.45;;;;;;;;;;5108110;27;20397;-71
2022/09/20 11:28:45;;;;;;;0.57;0.30;;;;;;;;;;5108819;28;20535;-72
2022/09/20 11:31:11;;;;;;;0.95;0.55;;;;;;;;;;5109067;28;20484;-72
2022/09/20 11:33:46;;;;;;;1.42;0.60;;;;;;;;;;5109127;28;20586;-74
2022/09/20 11:36:19;;;;;;;0.93;0.57;;;;;;;;;;5109702;28;20043;-70
2022/09/20 11:43:31;;;;;;;1.00;0.55;;;;;;;;;;5110011;27;20388;-72
2022/09/20 11:45:59;;;;;;;0.88;0.40;;;;;;;;;;5107408;28;20024;-73
2022/09/20 11:48:28;;;;;;;1.30;0.50;;;;;;;;;;5107546;28;20388;-73
2022/09/20 11:51:11;;;;;;;0.65;0.50;;;;;;;;;;5108720;28;20028;-72
2022/09/20 11:53:46;;;;;;;1.50;0.68;;;;;;;;;;5108447;28;20032;-73
2022/09/20 11:56:24;;;;;;;0.68;0.50;;;;;;;;;;5108572;28;20144;-73
2022/09/20 11:58:55;;;;;;;1.95;0.68;;;;;;;;;;5108667;28;20023;-72
2022/09/20 12:01:32;;;;;;;2.35;0.35;;;;;;;;;;5109412;28;20031;-71
2022/09/20 12:03:59;;;;;;;1.77;0.50;;;;;;;;;;5110814;28;20042;-73
2022/09/20 12:06:32;;;;;;;1.92;0.55;;;;;;;;;;5110698;28;20480;-73
2022/09/20 12:09:24;;;;;;;0.80;0.40;;;;;;;;;;5110688;27;20854;-72
2022/09/20 12:11:51;;;;;;;1.23;0.35;;;;;;;;;;5111019;28;20063;-73
2022/09/20 12:14:26;;;;;;;0.40;0.30;;;;;;;;;;5109797;28;20016;-73
2022/09/20 12:18:14;;;;;;;0.45;0.40;;;;;;;;;;5110044;27;20624;-72
2022/09/20 12:20:43;;;;;;;0.52;0.38;;;;;;;;;;5107674;28;20028;-74
2022/09/20 12:24:26;;;;;;;1.15;0.73;;;;;;;;;;5110337;27;20389;-72
2022/09/20 12:26:55;;;;;;;0.50;0.50;;;;;;;;;;5110215;28;20472;-72
2022/09/20 12:29:24;;;;;;;0.60;0.40;;;;;;;;;;5109065;28;20034;-72
2022/09/20 12:31:54;;;;;;;2.45;0.73;;;;;;;;;;5110127;28;20020;-73
2022/09/20 12:34:21;;;;;;;1.70;0.60;;;;;;;;;;5109786;28;20344;-74
2022/09/20 12:36:53;;;;;;;2.40;0.68;;;;;;;;;;5107856;28;20024;-73
2022/09/20 12:39:19;;;;;;;0.68;0.47;;;;;;;;;;5108482;28;20024;-74
2022/09/20 12:41:55;;;;;;;0.77;0.60;;;;;;;;;;5108773;28;20019;-73
2022/09/20 12:44:40;;;;;;;2.00;0.70;;;;;;;;;;5108349;28;20032;-74
2022/09/20 12:47:09;;;;;;;1.20;0.60;;;;;;;;;;5108599;28;20426;-73
2022/09/20 12:55:26;;;;;;;0.45;0.40;;;;;;;;;;5108605;28;20039;-71
2022/09/20 12:57:53;;;;;;;;;;;;;;;;;;5124384;28;20195;-72
2022/09/20 13:00:29;;;;;;;1.23;0.70;;;;;;;;;;5108853;28;19911;-72
2022/09/20 13:02:57;;;;;;;1.25;0.60;;;;;;;;;;5108393;28;20027;-72
2022/09/20 13:05:31;;;;;;;1.55;0.60;;;;;;;;;;5109908;28;20024;-72
2022/09/20 13:08:16;;;;;;;1.17;0.70;;;;;;;;;;5110512;28;20020;-72
2022/09/20 13:11:01;;;;;;;0.40;0.40;;;;;;;;;;5110133;28;20107;-72
2022/09/20 13:13:40;;;;;;;0.85;0.60;;;;;;;;;;5110477;28;20042;-71
2022/09/20 13:16:06;;;;;;;0.98;0.50;;;;;;;;;;5110699;28;20019;-71
2022/09/20 13:18:34;;;;;;;0.80;0.55;;;;;;;;;;5110165;28;20085;-71
2022/09/20 13:21:05;;;;;;;0.70;0.50;;;;;;;;;;5110860;28;20024;-71
2022/09/20 13:23:33;;;;;;;2.67;0.68;;;;;;;;;;5110151;28;20067;-71
2022/09/20 13:26:01;;;;;;;3.08;0.50;;;;;;;;;;5109791;28;20461;-71
2022/09/20 13:28:27;;;;;;;1.20;0.63;;;;;;;;;;5110102;28;20028;-71
2022/09/20 13:31:13;;;;;;;0.45;0.40;;;;;;;;;;5110105;28;20495;-71
2022/09/20 13:33:39;;;;;;;0.90;0.40;;;;;;;;;;5108175;28;20024;-71
2022/09/20 13:36:05;;;;;;;1.63;0.60;;;;;;;;;;5096433;28;20024;-72
2022/09/20 13:38:31;;;;;;;0.50;0.50;;;;;;;;;;5096289;28;20020;-72
2022/09/20 13:41:01;;;;;;;0.60;0.50;;;;;;;;;;5096335;28;20107;-72
2022/09/20 13:43:30;;;;;;;0.60;0.60;;;;;;;;;;5096318;28;20388;-72
2022/09/20 13:46:06;;;;;;;0.70;0.40;;;;;;;;;;5096042;28;20423;-72
2022/09/20 13:48:32;;;;;;;0.88;0.63;;;;;;;;;;5096504;28;20099;-72
2022/09/20 13:50:58;;;;;;;0.82;0.55;;;;;;;;;;5096179;28;20059;-72
2022/09/20 13:53:26;;;;;;;0.40;0.40;;;;;;;;;;5095949;28;20350;-72
2022/09/20 13:55:55;;;;;;;0.73;0.73;;;;;;;;;;5096067;28;20073;-72
2022/09/20 13:58:25;;;;;;;5.15;1.70;;;;;;;;;;5096046;28;20023;-72
2022/09/20 14:00:53;;;;;;;0.40;0.40;;;;;;;;;;5095873;28;20391;-72
2022/09/20 14:03:20;;;;;;;1.20;0.50;;;;;;;;;;5095826;28;20028;-72
2022/09/20 14:05:50;;;;;;;0.30;0.30;;;;;;;;;;5096014;28;20028;-72
2022/09/20 14:08:21;;;;;;;0.90;0.50;;;;;;;;;;5095531;28;20495;-71
2022/09/20 14:10:49;;;;;;;1.58;0.40;;;;;;;;;;5095845;28;20031;-71
2022/09/20 14:13:16;;;;;;;0.73;0.43;;;;;;;;;;5095721;28;20051;-71
2022/09/20 14:15:46;;;;;;;0.70;0.30;;;;;;;;;;5095302;28;20034;-71
2022/09/20 14:18:15;;;;;;;1.45;0.38;;;;;;;;;;5096233;28;20024;-71
2022/09/20 14:20:44;;;;;;;0.93;0.43;;;;;;;;;;5095486;28;20365;-72
2022/09/20 14:23:21;;;;;;;1.15;0.50;;;;;;;;;;5095303;28;20056;-71
2022/09/20 14:26:20;;;;;;;1.27;0.50;;;;;;;;;;5095590;28;20046;-71
2022/09/20 14:28:46;;;;;;;1.08;0.50;;;;;;;;;;5110774;28;20154;-71
2022/09/20 14:31:17;;;;;;;0.57;0.32;;;;;;;;;;5095411;28;20032;-71
2022/09/20 14:33:45;;;;;;;5.07;0.80;;;;;;;;;;5095547;28;20027;-71
2022/09/20 14:36:16;;;;;;;0.73;0.45;;;;;;;;;;5110667;28;20024;-72
2022/09/20 14:38:46;;;;;;;0.82;0.40;;;;;;;;;;5095275;28;20024;-72
2022/09/20 14:41:13;;;;;;;1.73;0.30;;;;;;;;;;5095194;28;20077;-71
2022/09/20 14:43:41;;;;;;;0.60;0.43;;;;;;;;;;5094652;28;20036;-71
2022/09/20 14:46:15;;;;;;;0.50;0.30;;;;;;;;;;5094213;28;20468;-71
2022/09/20 14:48:41;;;;;;;0.40;0.30;;;;;;;;;;5095542;28;20030;-71
2022/09/20 14:51:27;;;;;;;0.30;0.30;;;;;;;;;;5094618;28;20032;-71
2022/09/20 14:54:20;;;;;;;0.77;0.40;;;;;;;;;;5094952;28;20028;-71
2022/09/20 14:56:51;;;;;;;3.92;1.73;;;;;;;;;;5093389;28;20534;-71
2022/09/20 14:59:17;;;;;;;5.60;2.35;;;;;;;;;;5094955;28;20375;-71
2022/09/20 15:01:46;;;;;;;4.50;1.77;;;;;;;;;;5110662;28;20028;-71
2022/09/20 15:04:20;;;;;;;0.40;0.30;;;;;;;;;;5094483;28;20035;-71
2022/09/20 15:06:46;;;;;;;2.60;0.90;;;;;;;;;;5095054;28;20037;-71
2022/09/20 15:09:12;;;;;;;2.90;1.10;;;;;;;;;;5094676;28;20032;-73
2022/09/20 15:11:39;;;;;;;2.38;0.95;;;;;;;;;;5094205;28;20024;-71
2022/09/20 15:14:06;;;;;;;1.58;0.95;;;;;;;;;;5094605;28;20023;-71
2022/09/20 15:16:32;;;;;;;1.38;0.60;;;;;;;;;;5094493;28;20487;-71
2022/09/20 15:18:58;;;;;;;0.45;0.30;;;;;;;;;;5094038;28;20024;-71
2022/09/20 15:21:24;;;;;;;4.07;0.60;;;;;;;;;;5094349;28;20123;-71
2022/09/20 15:23:51;;;;;;;1.70;0.60;;;;;;;;;;5094098;28;20522;-71
2022/09/20 15:26:18;;;;;;;0.93;0.47;;;;;;;;;;5093863;28;20020;-72
2022/09/20 15:28:45;;;;;;;1.17;0.60;;;;;;;;;;5094368;28;20020;-72
2022/09/20 15:31:13;;;;;;;2.78;0.50;;;;;;;;;;5093702;28;20020;-72
2022/09/20 15:33:39;;;;;;;1.17;0.60;;;;;;;;;;5094361;28;20020;-72
2022/09/20 15:36:05;;;;;;;1.48;0.52;;;;;;;;;;5094073;28;20024;-72
2022/09/20 15:38:31;;;;;;;1.92;0.30;;;;;;;;;;5093770;28;20032;-72
2022/09/20 15:40:59;;;;;;;1.40;0.80;;;;;;;;;;5094062;28;20429;-72
2022/09/20 15:43:26;;;;;;;0.88;0.50;;;;;;;;;;5093930;28;20039;-72
2022/09/20 15:45:54;;;;;;;1.50;0.63;;;;;;;;;;5093585;28;20103;-72
2022/09/20 15:48:24;;;;;;;2.22;0.90;;;;;;;;;;5094240;28;20053;-71
2022/09/20 15:51:10;;;;;;;2.83;0.60;;;;;;;;;;5094235;28;20154;-72
2022/09/20 15:53:56;;;;;;;0.30;0.30;;;;;;;;;;5093420;28;20115;-71
2022/09/20 15:56:23;;;;;;;1.90;0.70;;;;;;;;;;5093914;28;20406;-72
2022/09/20 15:58:51;;;;;;;2.65;0.63;;;;;;;;;;5093561;28;20055;-72
2022/09/20 16:01:18;;;;;;;1.23;0.75;;;;;;;;;;5093334;28;20048;-72
2022/09/20 16:03:45;;;;;;;2.38;0.70;;;;;;;;;;5093783;28;20043;-71
2022/09/20 16:06:12;;;;;;;1.77;0.50;;;;;;;;;;5093735;28;20031;-71
2022/09/20 16:08:39;;;;;;;1.10;0.70;;;;;;;;;;5093342;28;20437;-71
2022/09/20 16:11:07;;;;;;;1.58;0.70;;;;;;;;;;5093600;28;20046;-71
2022/09/20 16:13:36;;;;;;;1.00;0.45;;;;;;;;;;5093219;28;20069;-72
2022/09/20 16:16:03;;;;;;;1.02;0.68;;;;;;;;;;5093566;28;20119;-71
2022/09/20 16:21:15;;;;;;;0.55;0.30;;;;;;;;;;5093278;28;20085;-71
2022/09/20 16:24:18;;;;;;;0.73;0.30;;;;;;;;;;5111666;27;20393;-73
2022/09/20 16:31:51;;;;;;;1.65;0.70;;;;;;;;;;5111725;27;20563;-73
2022/09/20 16:34:27;;;;;;;3.00;0.70;;;;;;;;;;5111415;28;20028;-72
2022/09/20 16:36:54;;;;;;;3.67;1.02;;;;;;;;;;5110974;28;20472;-71
2022/09/20 16:41:27;;;;;;;2.88;0.57;;;;;;;;;;5111609;27;20541;-72
2022/09/20 16:43:53;;;;;;;7.50;0.88;;;;;;;;;;5110842;28;20043;-72